createdAt,value
2019-04-23T00:01:14.713Z,33.30
2019-04-23T00:03:41.552Z,33.40
2019-04-23T00:06:19.152Z,33.70
2019-04-23T00:09:05.506Z,33.80
2019-04-23T00:11:15.365Z,33.80
2019-04-23T00:13:43.920Z,34.00
2019-04-23T00:21:36.412Z,34.70
2019-04-23T00:24:23.751Z,34.80
2019-04-23T00:26:36.949Z,35.40
2019-04-23T00:29:16.708Z,35.70
2019-04-23T00:34:10.979Z,35.90
2019-04-23T00:39:10.305Z,36.30
2019-04-23T00:41:48.189Z,37.00
2019-04-23T00:44:15.088Z,37.00
2019-04-23T00:46:52.092Z,37.00
2019-04-23T00:49:21.229Z,37.60
2019-04-23T00:51:52.949Z,36.90
2019-04-23T00:54:20.697Z,36.90
2019-04-23T00:57:07.503Z,37.10
2019-04-23T00:59:21.413Z,37.20
2019-04-23T01:01:56.613Z,37.60
2019-04-23T01:04:27.418Z,37.60
2019-04-23T01:06:58.318Z,37.80
2019-04-23T01:09:29.401Z,38.00
2019-04-23T01:12:02.403Z,38.20
2019-04-23T01:14:34.832Z,38.40
2019-04-23T01:17:08.507Z,38.50
2019-04-23T01:19:44.459Z,38.80
2019-04-23T01:21:55.747Z,38.90
2019-04-23T01:24:46.202Z,39.50
2019-04-23T01:27:59.925Z,40.10
2019-04-23T01:30:17.864Z,40.60
2019-04-23T01:32:46.573Z,41.10
2019-04-23T01:37:58.066Z,41.60
2019-04-23T01:40:19.116Z,42.10
2019-04-23T01:47:50.145Z,42.20
2019-04-23T01:55:26.274Z,42.70
2019-04-23T01:58:18.979Z,42.80
2019-04-23T02:00:30.733Z,42.80
2019-04-23T02:05:39.675Z,44.20
2019-04-23T02:08:03.546Z,44.30
2019-04-23T02:10:41.542Z,44.20
2019-04-23T02:13:11.303Z,44.20
2019-04-23T02:15:38.106Z,44.20
2019-04-23T02:18:14.943Z,44.30
2019-04-23T02:20:42.956Z,44.30
2019-04-23T02:23:52.152Z,44.30
2019-04-23T02:26:23.371Z,44.30
2019-04-23T02:28:53.462Z,44.30
2019-04-23T02:31:45.144Z,44.30
2019-04-23T02:34:00.928Z,44.30
2019-04-23T02:36:32.410Z,44.70
2019-04-23T02:38:56.101Z,45.10
2019-04-23T02:41:35.268Z,45.50
2019-04-23T02:44:11.078Z,45.70
2019-04-23T02:46:31.773Z,45.20
2019-04-23T02:54:17.236Z,45.50
2019-04-23T02:56:51.079Z,45.70
2019-04-23T02:59:28.540Z,45.90
2019-04-23T03:04:19.785Z,45.90
2019-04-23T03:06:52.258Z,46.20
2019-04-23T03:09:31.690Z,46.30
2019-04-23T03:11:52.004Z,46.60
2019-04-23T03:17:03.053Z,47.10
2019-04-23T03:19:45.808Z,47.10
2019-04-23T03:25:07.209Z,47.80
2019-04-23T03:27:42.122Z,48.00
2019-04-23T03:30:09.087Z,48.20
2019-04-23T03:42:42.390Z,49.00
2019-04-23T03:45:16.660Z,49.20
2019-04-23T03:47:59.002Z,49.70
2019-04-23T03:50:32.574Z,49.90
2019-04-23T03:52:39.173Z,50.10
2019-04-23T03:55:21.061Z,49.90
2019-04-23T03:57:40.280Z,50.40
2019-04-23T04:00:31.872Z,50.40
2019-04-23T04:03:12.717Z,50.50
2019-04-23T04:05:32.729Z,50.30
2019-04-23T04:08:05.073Z,50.50
2019-04-23T04:10:31.619Z,50.30
2019-04-23T04:12:53.894Z,50.30
2019-04-23T04:15:43.701Z,50.20
2019-04-23T04:20:35.731Z,50.50
2019-04-23T04:23:15.516Z,50.80
2019-04-23T04:33:29.958Z,51.30
2019-04-23T04:41:05.954Z,51.30
2019-04-23T04:43:32.132Z,51.20
2019-04-23T04:46:15.066Z,51.20
2019-04-23T04:48:23.176Z,51.20
2019-04-23T04:51:02.186Z,51.30
2019-04-23T04:56:05.038Z,51.30
2019-04-23T04:58:34.815Z,51.30
2019-04-23T05:01:08.213Z,51.80
2019-04-23T05:03:28.525Z,51.70
2019-04-23T05:08:36.867Z,51.40
2019-04-23T05:11:09.152Z,51.80
2019-04-23T05:13:47.653Z,51.50
2019-04-23T05:16:24.342Z,51.50
2019-04-23T05:18:49.437Z,51.60
2019-04-23T05:23:43.050Z,52.00
2019-04-23T05:26:20.931Z,52.10
2019-04-23T05:28:55.625Z,51.90
2019-04-23T05:31:18.916Z,52.20
2019-04-23T05:33:52.313Z,51.70
2019-04-23T05:41:36.791Z,51.80
2019-04-23T05:43:57.351Z,51.70
2019-04-23T05:46:33.793Z,51.40
2019-04-23T05:48:59.846Z,52.10
2019-04-23T05:53:58.425Z,51.00
2019-04-23T05:56:27.886Z,51.30
2019-04-23T05:59:06.253Z,51.20
2019-04-23T06:04:19.122Z,52.00
2019-04-23T06:07:06.747Z,51.60
2019-04-23T06:09:14.390Z,51.20
2019-04-23T06:17:03.860Z,50.90
2019-04-23T06:19:17.141Z,50.30
2019-04-23T06:22:00.357Z,50.80
2019-04-23T06:24:39.859Z,50.70
2019-04-23T06:26:57.512Z,50.80
2019-04-23T06:29:25.675Z,50.90
2019-04-23T06:31:57.284Z,51.00
2019-04-23T06:34:28.106Z,51.10
2019-04-23T06:36:57.226Z,51.10
2019-04-23T06:39:35.984Z,50.80
2019-04-23T06:42:03.128Z,50.60
2019-04-23T06:44:38.024Z,50.70
2019-04-23T06:47:06.639Z,50.70
2019-04-23T06:49:47.291Z,50.80
2019-04-23T06:54:51.509Z,50.70
2019-04-23T06:57:16.325Z,50.30
2019-04-23T06:59:59.171Z,50.30
2019-04-23T07:02:34.321Z,50.40
2019-04-23T07:04:57.156Z,49.80
2019-04-23T07:09:51.634Z,50.00
2019-04-23T07:12:22.057Z,49.50
2019-04-23T07:17:18.260Z,49.70
2019-04-23T07:19:58.463Z,49.30
2019-04-23T07:22:26.786Z,49.40
2019-04-23T07:25:00.327Z,49.40
2019-04-23T07:27:27.809Z,49.40
2019-04-23T07:30:02.126Z,49.60
2019-04-23T07:32:31.202Z,50.00
2019-04-23T07:35:07.105Z,49.10
2019-04-23T07:37:57.175Z,48.60
2019-04-23T07:40:24.494Z,48.90
2019-04-23T07:42:55.138Z,47.60
2019-04-23T07:45:30.716Z,46.60
2019-04-23T07:50:52.023Z,46.50
2019-04-23T07:53:17.064Z,46.10
2019-04-23T07:56:02.270Z,45.80
2019-04-23T07:58:27.334Z,46.50
2019-04-23T08:03:39.811Z,46.00
2019-04-23T08:05:49.086Z,46.60
2019-04-23T08:08:25.019Z,46.70
2019-04-23T08:13:47.732Z,45.00
2019-04-23T08:16:25.867Z,45.10
2019-04-23T08:18:49.816Z,44.50
2019-04-23T08:21:16.208Z,45.10
2019-04-23T08:24:07.056Z,45.60
2019-04-23T08:26:55.339Z,44.50
2019-04-23T08:29:26.076Z,44.80
2019-04-23T08:32:00.643Z,45.20
2019-04-23T08:34:38.000Z,44.80
2019-04-23T08:37:04.930Z,44.90
2019-04-23T08:39:41.579Z,44.20
2019-04-23T08:42:27.027Z,44.30
2019-04-23T08:45:09.120Z,43.70
2019-04-23T08:47:44.654Z,43.00
2019-04-23T08:50:04.260Z,43.50
2019-04-23T08:52:38.388Z,42.70
2019-04-23T08:55:13.726Z,43.30
2019-04-23T08:57:41.298Z,43.30
2019-04-23T09:00:17.913Z,43.00
2019-04-23T09:05:16.501Z,43.50
2019-04-23T09:07:54.767Z,43.70
2019-04-23T09:10:19.571Z,43.60
2019-04-23T09:12:55.246Z,43.50
2019-04-23T09:15:23.828Z,43.60
2019-04-23T09:17:57.692Z,43.50
2019-04-23T09:22:52.598Z,43.60
2019-04-23T09:28:15.715Z,43.30
2019-04-23T09:30:30.083Z,43.60
2019-04-23T09:33:14.026Z,43.30
2019-04-23T09:35:59.809Z,43.30
2019-04-23T09:38:54.127Z,42.20
2019-04-23T09:41:37.850Z,42.30
2019-04-23T09:47:37.156Z,42.00
2019-04-23T09:50:08.702Z,42.10
2019-04-23T09:52:41.239Z,41.70
2019-04-23T09:55:13.717Z,41.30
2019-04-23T09:57:43.435Z,41.00
2019-04-23T10:00:16.976Z,40.90
2019-04-23T10:02:30.538Z,40.20
2019-04-23T10:04:56.284Z,40.20
2019-04-23T10:07:27.138Z,40.90
2019-04-23T10:09:47.891Z,40.70
2019-04-23T10:12:17.763Z,41.40
2019-04-23T10:14:57.749Z,40.70
2019-04-23T10:17:18.309Z,40.80
2019-04-23T10:19:48.677Z,40.80
2019-04-23T10:22:19.512Z,40.80
2019-04-23T10:24:50.784Z,40.10
2019-04-23T10:27:21.117Z,40.50
2019-04-23T10:29:51.775Z,39.70
2019-04-23T10:32:21.848Z,40.00
2019-04-23T10:35:03.839Z,41.00
2019-04-23T10:37:34.188Z,40.20
2019-04-23T10:39:59.236Z,39.90
2019-04-23T10:42:27.869Z,40.00
2019-04-23T10:45:15.257Z,39.80
2019-04-23T10:48:29.486Z,39.60
2019-04-23T10:50:55.331Z,39.10
2019-04-23T10:58:36.893Z,38.80
2019-04-23T11:01:15.207Z,38.90
2019-04-23T11:03:49.246Z,38.90
2019-04-23T11:06:21.402Z,38.60
2019-04-23T11:08:38.365Z,37.90
2019-04-23T11:11:16.948Z,37.90
2019-04-23T11:18:58.295Z,37.50
2019-04-23T11:21:28.260Z,36.40
2019-04-23T11:24:02.541Z,36.60
2019-04-23T11:26:31.979Z,36.90
2019-04-23T11:28:51.874Z,36.70
2019-04-23T11:34:00.975Z,36.40
2019-04-23T11:36:47.981Z,35.40
2019-04-23T11:38:58.626Z,35.30
2019-04-23T11:44:10.028Z,34.20
2019-04-23T11:46:46.091Z,34.50
2019-04-23T11:54:10.840Z,34.70
2019-04-23T11:59:17.543Z,34.30
2019-04-23T12:02:01.141Z,34.40
2019-04-23T12:04:57.350Z,33.70
2019-04-23T12:07:22.652Z,33.50
2019-04-23T12:12:33.050Z,33.10
2019-04-23T12:17:31.672Z,33.00
2019-04-23T12:22:41.522Z,32.60
2019-04-23T12:25:17.693Z,31.70
2019-04-23T12:27:33.192Z,32.30
2019-04-23T12:32:59.441Z,31.40
2019-04-23T12:35:17.701Z,31.10
2019-04-23T12:37:58.657Z,31.00
2019-04-23T12:40:24.985Z,31.20
2019-04-23T12:45:35.461Z,31.30
2019-04-23T12:53:00.723Z,30.60
2019-04-23T12:58:22.203Z,30.70
2019-04-23T13:03:25.981Z,30.30
2019-04-23T13:05:34.210Z,29.70
2019-04-23T13:08:23.406Z,30.60
2019-04-23T13:10:40.022Z,30.10
2019-04-23T13:15:40.675Z,30.00
2019-04-23T13:18:17.595Z,30.00
2019-04-23T13:28:27.700Z,29.90
2019-04-23T13:31:00.805Z,30.40
2019-04-23T13:38:38.249Z,30.00
2019-04-23T13:41:08.800Z,30.00
2019-04-23T13:48:31.221Z,29.70
2019-04-23T13:51:19.894Z,30.20
2019-04-23T13:53:53.615Z,29.30
2019-04-23T13:56:20.853Z,29.80
2019-04-23T13:58:43.698Z,29.30
2019-04-23T14:08:55.301Z,30.30
2019-04-23T14:11:23.315Z,30.10
2019-04-23T14:14:05.597Z,30.10
2019-04-23T14:16:29.684Z,29.60
2019-04-23T14:21:28.611Z,29.50
2019-04-23T14:28:51.222Z,29.80
2019-04-23T14:31:21.914Z,29.50
2019-04-23T14:34:25.418Z,28.70
2019-04-23T14:39:18.763Z,29.00
2019-04-23T14:41:26.232Z,29.70
2019-04-23T14:44:19.679Z,29.20
2019-04-23T14:47:04.546Z,29.80
2019-04-23T14:49:16.058Z,29.90
2019-04-23T14:52:10.513Z,29.80
2019-04-23T14:54:24.960Z,29.80
2019-04-23T14:56:55.383Z,29.30
2019-04-23T15:02:00.876Z,30.00
2019-04-23T15:04:28.688Z,30.20
2019-04-23T15:07:00.826Z,30.60
2019-04-23T15:09:29.332Z,30.50
2019-04-23T15:12:02.166Z,30.00
2019-04-23T15:14:37.528Z,30.20
2019-04-23T15:17:00.372Z,31.60
2019-04-23T15:19:45.047Z,31.70
2019-04-23T15:22:13.507Z,32.60
2019-04-23T15:24:48.683Z,32.70
2019-04-23T15:29:30.230Z,33.40
2019-04-23T15:32:18.762Z,33.10
2019-04-23T15:34:47.275Z,33.70
2019-04-23T15:39:47.331Z,33.90
2019-04-23T15:44:55.789Z,33.90
2019-04-23T15:50:02.817Z,34.30
2019-04-23T15:52:30.319Z,35.20
2019-04-23T15:54:56.972Z,35.20
2019-04-23T15:57:42.056Z,35.30
2019-04-23T15:59:54.605Z,35.50
2019-04-23T16:01:59.782Z,35.40
2019-04-23T16:04:29.753Z,35.50
2019-04-23T16:06:59.738Z,35.40
2019-04-23T16:10:04.306Z,35.50
2019-04-23T16:12:27.763Z,36.20
2019-04-23T16:15:02.692Z,35.50
2019-04-23T16:17:37.510Z,36.10
2019-04-23T16:20:16.909Z,36.20
2019-04-23T16:22:37.956Z,35.80
2019-04-23T16:27:44.274Z,36.20
2019-04-23T16:30:27.374Z,36.10
2019-04-23T16:35:43.617Z,34.20
2019-04-23T16:40:47.674Z,34.30
2019-04-23T16:45:45.946Z,34.10
2019-04-23T16:48:25.395Z,34.50
2019-04-23T16:51:05.312Z,34.90
2019-04-23T16:53:21.534Z,35.90
2019-04-23T16:58:28.047Z,35.80
2019-04-23T17:01:02.582Z,35.80
2019-04-23T17:03:26.481Z,35.80
2019-04-23T17:06:08.590Z,35.30
2019-04-23T17:11:03.827Z,35.90
2019-04-23T17:13:37.786Z,36.00
2019-04-23T17:16:15.229Z,34.90
2019-04-23T17:18:31.373Z,33.60
2019-04-23T17:20:56.411Z,33.80
2019-04-23T17:23:38.825Z,31.30
2019-04-23T17:26:04.096Z,32.10
2019-04-23T17:28:35.620Z,31.30
2019-04-23T17:31:26.230Z,31.60
2019-04-23T17:38:56.889Z,32.90
2019-04-23T17:44:14.227Z,34.40
2019-04-23T17:46:34.215Z,35.00
2019-04-23T17:49:04.652Z,34.70
2019-04-23T17:51:26.243Z,34.80
2019-04-23T17:54:12.092Z,34.70
2019-04-23T17:56:49.439Z,36.10
2019-04-23T17:59:13.230Z,35.30
2019-04-23T18:02:08.227Z,34.50
2019-04-23T18:06:45.806Z,34.80
2019-04-23T18:09:25.055Z,36.20
2019-04-23T18:11:50.131Z,34.90
2019-04-23T18:14:11.782Z,36.60
2019-04-23T18:19:18.804Z,35.80
2019-04-23T18:22:35.721Z,35.50
2019-04-23T18:25:13.510Z,35.50
2019-04-23T18:27:42.489Z,36.60
2019-04-23T18:30:19.242Z,36.60
2019-04-23T18:33:58.295Z,36.50
2019-04-23T18:35:44.690Z,36.70
2019-04-23T18:38:24.896Z,36.80
2019-04-23T18:58:50.330Z,38.90
2019-04-23T19:04:01.712Z,39.00
2019-04-23T19:06:45.359Z,39.40
2019-04-23T19:10:10.763Z,39.70
2019-04-23T19:12:30.186Z,40.00
2019-04-23T19:15:06.113Z,40.40
2019-04-23T19:20:01.145Z,41.20
2019-04-23T19:22:38.762Z,41.20
2019-04-23T19:25:01.964Z,41.10
2019-04-23T19:27:38.796Z,41.10
2019-04-23T19:30:20.728Z,41.60
2019-04-23T19:32:49.037Z,41.80
2019-04-23T19:35:33.557Z,42.20
2019-04-23T19:37:55.494Z,42.40
2019-04-23T19:40:14.116Z,42.50
2019-04-23T19:42:50.644Z,42.80
2019-04-23T19:45:21.100Z,43.20
2019-04-23T19:47:58.807Z,43.30
2019-04-23T19:50:29.984Z,43.40
2019-04-23T19:55:24.324Z,44.00
2019-04-23T20:00:28.916Z,44.70
2019-04-23T20:03:13.741Z,44.70
2019-04-23T20:05:31.146Z,45.30
2019-04-23T20:08:08.747Z,45.40
2019-04-23T20:10:37.462Z,45.50
2019-04-23T20:12:59.221Z,45.80
2019-04-23T20:15:44.335Z,46.10
2019-04-23T20:18:23.649Z,46.00
2019-04-23T20:20:42.444Z,46.10
2019-04-23T20:23:40.408Z,46.30
2019-04-23T20:26:03.285Z,46.70
2019-04-23T20:28:27.381Z,47.10
2019-04-23T20:31:54.665Z,47.40
2019-04-23T20:36:25.612Z,47.70
2019-04-23T20:41:33.072Z,48.10
2019-04-23T20:43:57.599Z,47.90
2019-04-23T20:46:27.394Z,48.00
2019-04-23T20:48:55.931Z,47.90
2019-04-23T20:51:35.852Z,47.90
2019-04-23T20:54:07.093Z,48.60
2019-04-23T20:56:36.077Z,48.50
2019-04-23T20:58:59.687Z,48.90
2019-04-23T21:01:41.839Z,48.20
2019-04-23T21:04:03.314Z,47.80
2019-04-23T21:06:46.735Z,47.80
2019-04-23T21:11:47.957Z,47.60
2019-04-23T21:14:41.288Z,47.50
2019-04-23T21:16:42.229Z,47.70
2019-04-23T21:19:25.157Z,47.90
2019-04-23T21:22:07.273Z,47.80
2019-04-23T21:24:35.018Z,47.90
2019-04-23T21:27:20.227Z,47.90
2019-04-23T21:29:53.683Z,47.90
2019-04-23T21:32:19.375Z,47.80
2019-04-23T21:34:55.921Z,47.70
2019-04-23T21:37:34.274Z,47.70
2019-04-23T21:40:28.627Z,47.70
2019-04-23T21:42:59.074Z,47.90
2019-04-23T21:45:24.419Z,47.90
2019-04-23T21:48:02.996Z,48.10
2019-04-23T21:50:25.754Z,48.30
2019-04-23T21:52:54.171Z,48.60
2019-04-23T21:55:30.647Z,48.80
2019-04-23T22:00:24.455Z,49.00
2019-04-23T22:03:03.662Z,49.30
2019-04-23T22:05:32.545Z,49.50
2019-04-23T22:10:32.042Z,49.80
2019-04-23T22:13:09.651Z,49.90
2019-04-23T22:15:44.877Z,50.10
2019-04-23T22:18:07.068Z,50.40
2019-04-23T22:20:43.584Z,50.80
2019-04-23T22:28:11.441Z,50.80
2019-04-23T22:30:49.969Z,50.90
2019-04-23T22:35:54.218Z,51.30
2019-04-23T22:38:21.085Z,51.30
2019-04-23T22:40:49.863Z,51.50
2019-04-23T22:43:20.302Z,51.60
2019-04-23T22:48:27.885Z,51.70
2019-04-23T22:51:07.064Z,52.10
2019-04-23T22:53:15.257Z,52.10
2019-04-23T22:55:57.349Z,52.90
2019-04-23T22:58:25.651Z,52.30
2019-04-23T23:01:20.751Z,52.30
2019-04-23T23:03:59.000Z,52.30
2019-04-23T23:06:25.987Z,52.20
2019-04-23T23:09:06.049Z,52.40
2019-04-23T23:11:13.624Z,52.60
2019-04-23T23:14:08.628Z,52.40
2019-04-23T23:16:23.001Z,52.60
2019-04-23T23:18:59.884Z,52.70
2019-04-23T23:21:37.637Z,52.80
2019-04-23T23:28:55.846Z,53.00
2019-04-23T23:31:29.501Z,53.30
2019-04-23T23:34:02.368Z,53.50
2019-04-23T23:39:06.747Z,53.80
2019-04-23T23:49:14.192Z,54.50
2019-04-23T23:51:39.784Z,54.40
2019-04-23T23:54:18.194Z,54.80
2019-04-23T23:56:56.476Z,54.80
